Time;durP1;ratioP1;P1;durP2;ratioP2;P2;SDS_P1;SDS_P2;PMS_P1;PMS_P2;Temp;Humidity;BMP_temperature;BMP_pressure;BME280_temperature;BME280_humidity;BME280_pressure;Samples;Min_cycle;Max_cycle;Signal;HPM_P1;HPM_P2
2021/04/02 00:02:12;;;;;;;8.98;4.75;;;24.60;38.00;;;;;;6163645;27;80729;-68
2021/04/02 00:05:12;;;;;;;9.68;5.53;;;24.60;38.60;;;;;;6153181;27;80848;-69
2021/04/02 00:08:13;;;;;;;9.18;5.30;;;24.60;37.70;;;;;;6153921;27;81520;-72
2021/04/02 00:11:13;;;;;;;8.98;5.28;;;24.60;38.00;;;;;;6174705;27;80517;-71
2021/04/02 00:14:14;;;;;;;9.55;5.60;;;24.60;38.60;;;;;;6171643;28;80957;-71
2021/04/02 00:17:14;;;;;;;11.77;6.00;;;24.60;38.70;;;;;;6156241;27;80432;-72
2021/04/02 00:20:15;;;;;;;8.65;5.30;;;24.60;38.90;;;;;;6155263;27;80351;-71
2021/04/02 00:23:15;;;;;;;11.98;5.82;;;24.60;38.50;;;;;;6166933;27;80571;-71
2021/04/02 00:26:16;;;;;;;10.13;5.57;;;24.60;38.50;;;;;;6154628;28;81934;-70
2021/04/02 00:29:16;;;;;;;11.00;5.82;;;24.60;38.60;;;;;;6154316;27;81400;-70
2021/04/02 00:32:17;;;;;;;13.63;6.00;;;24.60;38.80;;;;;;6154679;27;80405;-68
2021/04/02 00:35:17;;;;;;;8.95;5.45;;;24.60;38.50;;;;;;6164017;27;80697;-68
2021/04/02 00:38:18;;;;;;;8.93;4.97;;;24.60;38.70;;;;;;6166664;28;80218;-69
2021/04/02 00:41:20;;;;;;;13.55;6.00;;;24.60;38.50;;;;;;6160551;27;80502;-68
2021/04/02 00:44:20;;;;;;;12.20;6.30;;;24.60;38.40;;;;;;6157314;27;80688;-68
2021/04/02 00:47:21;;;;;;;15.68;6.85;;;24.60;38.60;;;;;;6151544;27;82935;-69
2021/04/02 00:50:21;;;;;;;12.48;5.93;;;24.60;37.90;;;;;;6152589;27;80691;-68
2021/04/02 00:53:22;;;;;;;10.48;5.32;;;24.60;37.70;;;;;;6150791;27;86070;-68
2021/04/02 00:56:22;;;;;;;11.35;5.53;;;24.60;37.70;;;;;;6170090;27;80860;-68
2021/04/02 00:59:24;;;;;;;10.50;6.22;;;24.60;37.30;;;;;;6159961;27;80346;-68
2021/04/02 01:02:24;;;;;;;11.27;6.00;;;24.60;38.50;;;;;;6155034;27;83076;-68
2021/04/02 01:05:25;;;;;;;10.52;6.25;;;24.60;38.30;;;;;;6159336;27;81914;-69
2021/04/02 01:08:25;;;;;;;10.55;5.25;;;24.60;38.80;;;;;;6165024;27;82942;-68
2021/04/02 01:11:26;;;;;;;9.60;5.65;;;24.60;39.10;;;;;;6165213;27;82651;-68
2021/04/02 01:14:29;;;;;;;10.98;5.95;;;24.60;38.40;;;;;;6153071;27;82544;-68
2021/04/02 01:17:29;;;;;;;10.90;5.75;;;24.60;38.90;;;;;;6154436;28;82859;-68
2021/04/02 01:20:30;;;;;;;13.20;6.82;;;24.60;38.90;;;;;;6149335;27;81246;-68
2021/04/02 01:23:31;;;;;;;11.15;5.45;;;24.60;39.30;;;;;;6153255;28;84947;-68
2021/04/02 01:26:31;;;;;;;10.77;5.53;;;24.60;39.00;;;;;;6164682;27;81198;-68
2021/04/02 01:29:32;;;;;;;11.50;6.35;;;24.50;39.50;;;;;;6152853;28;80628;-68
2021/04/02 01:32:33;;;;;;;21.48;5.93;;;24.50;39.30;;;;;;6148205;27;80989;-68
2021/04/02 01:35:34;;;;;;;12.35;6.35;;;24.60;38.60;;;;;;6148667;28;83496;-67
2021/04/02 01:38:35;;;;;;;9.88;5.88;;;24.60;38.60;;;;;;6153745;27;82415;-67
2021/04/02 01:41:36;;;;;;;13.63;6.43;;;24.50;38.90;;;;;;6158438;28;81393;-67
2021/04/02 01:44:36;;;;;;;13.88;6.50;;;24.50;38.90;;;;;;6155637;27;81325;-67
2021/04/02 01:47:38;;;;;;;11.52;5.65;;;24.50;39.20;;;;;;6153387;28;83283;-67
2021/04/02 01:50:39;;;;;;;11.07;6.43;;;24.50;39.30;;;;;;6159322;27;81427;-67
2021/04/02 01:53:41;;;;;;;11.10;5.90;;;24.50;39.00;;;;;;6150552;28;83153;-68
2021/04/02 01:56:43;;;;;;;14.88;6.45;;;24.50;39.30;;;;;;6146342;27;82590;-68
2021/04/02 01:59:44;;;;;;;12.10;5.93;;;24.50;39.40;;;;;;6159073;28;84116;-68
2021/04/02 02:02:48;;;;;;;10.63;5.82;;;24.50;39.70;;;;;;6154644;27;83753;-68
2021/04/02 02:05:49;;;;;;;16.02;6.65;;;24.50;39.90;;;;;;6144197;28;82798;-68
2021/04/02 02:09:10;;;;;;;12.02;6.25;;;24.50;39.80;;;;;;6156902;27;81619;-67
2021/04/02 02:12:11;;;;;;;11.55;6.20;;;24.50;40.00;;;;;;6165147;27;81421;-68
2021/04/02 02:15:16;;;;;;;12.15;6.25;;;24.50;39.30;;;;;;6161193;28;82681;-67
2021/04/02 02:18:18;;;;;;;10.25;5.65;;;24.50;39.60;;;;;;6162393;27;80394;-67
2021/04/02 02:21:23;;;;;;;12.48;6.25;;;24.50;39.60;;;;;;6153801;27;80758;-67
2021/04/02 02:24:24;;;;;;;10.02;6.13;;;24.50;39.80;;;;;;6134068;27;83217;-67
2021/04/02 02:27:25;;;;;;;19.90;6.32;;;24.50;39.50;;;;;;6152486;27;80999;-67
2021/04/02 02:30:27;;;;;;;10.07;5.85;;;24.50;39.10;;;;;;6137307;27;81493;-68
2021/04/02 02:33:33;;;;;;;13.50;6.18;;;24.60;39.00;;;;;;6148338;27;83129;-67
2021/04/02 02:36:42;;;;;;;12.20;6.80;;;24.60;39.10;;;;;;6148480;27;81536;-67
2021/04/02 02:39:43;;;;;;;13.43;6.35;;;24.50;40.00;;;;;;6155526;27;81921;-68
2021/04/02 02:42:44;;;;;;;14.50;6.10;;;24.50;39.90;;;;;;6156082;27;80894;-67
2021/04/02 02:45:45;;;;;;;12.23;5.53;;;24.50;40.10;;;;;;6133815;28;82896;-67
2021/04/02 02:48:45;;;;;;;12.35;6.68;;;24.50;39.20;;;;;;6155945;27;83478;-67
2021/04/02 02:51:46;;;;;;;10.35;6.10;;;24.50;39.80;;;;;;6148675;27;82247;-67
2021/04/02 02:54:48;;;;;;;11.43;6.90;;;24.50;39.60;;;;;;6134361;27;80750;-68
2021/04/02 02:57:49;;;;;;;12.75;5.80;;;24.50;39.70;;;;;;6160553;27;83522;-67
2021/04/02 03:00:50;;;;;;;10.73;5.80;;;24.50;39.60;;;;;;6155923;27;82962;-68
2021/04/02 03:03:51;;;;;;;17.58;6.72;;;24.40;39.80;;;;;;6149924;28;84153;-68
2021/04/02 03:06:51;;;;;;;15.13;6.63;;;24.50;40.20;;;;;;6154349;27;81035;-67
2021/04/02 03:09:53;;;;;;;15.45;6.88;;;24.50;40.00;;;;;;6152686;28;82894;-66
2021/04/02 03:12:53;;;;;;;15.00;6.72;;;24.40;40.20;;;;;;6152027;27;81773;-67
2021/04/02 03:15:54;;;;;;;13.32;6.97;;;24.40;40.30;;;;;;6158571;28;82854;-67
2021/04/02 03:18:55;;;;;;;11.50;6.00;;;24.50;39.50;;;;;;6157856;27;83131;-67
2021/04/02 03:21:55;;;;;;;16.33;6.40;;;24.50;40.00;;;;;;6161506;27;82989;-67
2021/04/02 03:25:07;;;;;;;13.65;6.82;;;24.40;40.40;;;;;;6147463;28;87536;-67
2021/04/02 03:28:15;;;;;;;12.50;6.10;;;24.40;40.00;;;;;;6131653;27;83551;-66
2021/04/02 03:31:19;;;;;;;16.70;6.90;;;24.50;40.60;;;;;;6151001;28;83103;-67
2021/04/02 03:34:21;;;;;;;11.15;5.95;;;24.40;39.80;;;;;;6158763;27;83147;-67
2021/04/02 03:37:24;;;;;;;10.32;5.93;;;24.40;39.70;;;;;;6149175;27;82307;-66
2021/04/02 03:40:32;;;;;;;13.65;7.10;;;24.50;39.80;;;;;;6161274;28;81748;-66
2021/04/02 03:43:35;;;;;;;13.82;6.88;;;24.40;39.80;;;;;;6144862;27;80732;-66
2021/04/02 03:46:36;;;;;;;19.27;7.70;;;24.40;38.70;;;;;;6152443;28;81739;-67
2021/04/02 03:49:37;;;;;;;10.95;6.63;;;24.40;38.70;;;;;;6156866;27;82180;-67
2021/04/02 03:52:39;;;;;;;14.40;7.47;;;24.40;38.80;;;;;;6158403;27;83275;-67
2021/04/02 03:55:40;;;;;;;13.45;6.05;;;24.40;38.80;;;;;;6157314;27;83191;-67
2021/04/02 03:58:41;;;;;;;11.95;5.93;;;24.50;38.80;;;;;;6142232;27;82600;-67
2021/04/02 04:01:42;;;;;;;12.68;7.20;;;24.50;38.80;;;;;;6150823;27;82515;-67
2021/04/02 04:04:45;;;;;;;11.73;6.90;;;24.50;38.80;;;;;;6154573;27;83452;-69
2021/04/02 04:07:48;;;;;;;13.88;6.35;;;24.50;39.40;;;;;;6161620;27;80902;-68
2021/04/02 04:10:51;;;;;;;13.52;7.38;;;24.50;39.20;;;;;;6156956;28;81957;-68
2021/04/02 04:13:52;;;;;;;16.30;6.97;;;24.60;39.20;;;;;;6158049;27;82652;-68
2021/04/02 04:16:53;;;;;;;15.18;7.40;;;24.60;39.30;;;;;;6167883;27;81546;-67
2021/04/02 04:19:53;;;;;;;10.60;6.60;;;24.60;39.20;;;;;;6151313;28;81492;-67
2021/04/02 04:22:58;;;;;;;12.15;6.55;;;24.60;39.00;;;;;;6152491;27;80977;-66
2021/04/02 04:25:58;;;;;;;10.20;6.20;;;24.60;38.90;;;;;;6134005;28;82607;-68
2021/04/02 04:28:59;;;;;;;10.35;6.25;;;24.50;38.80;;;;;;6154087;27;81325;-68
2021/04/02 04:32:00;;;;;;;12.05;6.25;;;24.60;38.80;;;;;;6158666;27;83633;-68
2021/04/02 04:35:00;;;;;;;8.88;5.35;;;24.50;38.80;;;;;;6154830;27;81845;-66
2021/04/02 04:38:01;;;;;;;11.13;5.53;;;24.60;39.00;;;;;;6153426;27;80761;-67
2021/04/02 04:41:01;;;;;;;8.25;5.20;;;24.50;39.10;;;;;;6153135;27;83262;-67
2021/04/02 04:44:02;;;;;;;6.47;4.80;;;24.50;39.10;;;;;;6155961;27;80641;-71
2021/04/02 04:47:02;;;;;;;8.23;5.03;;;24.50;39.10;;;;;;6157483;27;81397;-68
2021/04/02 04:50:03;;;;;;;7.15;4.30;;;24.50;39.00;;;;;;6157443;27;80566;-71
2021/04/02 04:53:03;;;;;;;13.30;3.78;;;24.50;38.10;;;;;;6153174;27;80476;-67
2021/04/02 04:56:04;;;;;;;5.38;3.53;;;24.50;38.30;;;;;;6130423;28;80778;-67
2021/04/02 04:59:04;;;;;;;5.47;3.20;;;24.40;38.50;;;;;;6153713;27;81962;-68
2021/04/02 05:02:05;;;;;;;10.10;3.35;;;24.40;39.50;;;;;;6165931;27;80757;-69
2021/04/02 05:05:05;;;;;;;6.97;3.40;;;24.40;39.50;;;;;;6162870;27;80297;-69
2021/04/02 05:08:06;;;;;;;9.90;3.53;;;24.40;39.70;;;;;;6161641;27;82725;-68
2021/04/02 05:11:06;;;;;;;6.03;3.10;;;24.40;40.10;;;;;;6164151;27;80435;-68
2021/04/02 05:14:07;;;;;;;7.20;3.17;;;24.40;39.40;;;;;;6155584;27;80965;-69
2021/04/02 05:17:08;;;;;;;4.03;2.72;;;24.40;38.80;;;;;;6156322;27;80089;-69
2021/04/02 05:20:08;;;;;;;4.60;3.03;;;24.40;38.90;;;;;;6159439;27;80815;-68
2021/04/02 05:23:09;;;;;;;6.97;2.95;;;24.50;39.20;;;;;;6149116;27;80739;-67
2021/04/02 05:26:09;;;;;;;5.30;2.97;;;24.40;39.50;;;;;;6153161;27;80902;-69
2021/04/02 05:29:10;;;;;;;7.45;2.85;;;24.50;39.70;;;;;;6161289;27;80861;-69
2021/04/02 05:32:10;;;;;;;5.30;2.90;;;24.50;39.80;;;;;;6148966;27;81499;-69
2021/04/02 05:35:11;;;;;;;5.43;2.50;;;24.40;39.70;;;;;;6166146;27;80616;-70
2021/04/02 05:38:11;;;;;;;6.07;2.30;;;24.50;40.60;;;;;;6147495;27;81433;-68
2021/04/02 05:41:12;;;;;;;5.15;2.67;;;24.50;40.10;;;;;;6156825;28;80801;-69
2021/04/02 05:44:12;;;;;;;3.63;1.98;;;24.50;40.30;;;;;;6130578;27;80491;-69
2021/04/02 05:47:14;;;;;;;5.00;2.72;;;24.50;40.40;;;;;;6161368;27;80509;-70
2021/04/02 05:50:14;;;;;;;4.15;2.75;;;24.50;40.30;;;;;;6155355;27;81233;-70
2021/04/02 05:53:15;;;;;;;7.82;2.70;;;24.50;41.00;;;;;;6154551;28;80894;-69
2021/04/02 05:56:15;;;;;;;3.75;2.40;;;24.60;40.60;;;;;;6147147;27;81397;-68
2021/04/02 05:59:16;;;;;;;3.92;2.70;;;24.60;40.40;;;;;;6144163;28;80998;-70
2021/04/02 06:02:16;;;;;;;6.10;2.50;;;24.60;41.00;;;;;;6156063;27;81516;-69
2021/04/02 06:05:17;;;;;;;5.63;2.97;;;24.60;40.00;;;;;;6150330;27;83066;-67
2021/04/02 06:08:18;;;;;;;6.90;2.50;;;24.60;40.00;;;;;;6158831;28;81907;-69
2021/04/02 06:11:18;;;;;;;3.50;2.53;;;24.60;40.10;;;;;;6158985;27;83540;-69
2021/04/02 06:14:22;;;;;;;3.60;2.20;;;24.60;40.00;;;;;;6153806;27;83696;-70
2021/04/02 06:17:22;;;;;;;3.72;2.30;;;24.60;39.90;;;;;;6140978;28;83116;-73
2021/04/02 06:20:22;;;;;;;3.53;2.30;;;24.60;39.50;;;;;;6151007;27;80150;-73
2021/04/02 06:23:23;;;;;;;5.72;2.35;;;24.60;39.40;;;;;;6151275;27;83142;-68
2021/04/02 06:26:23;;;;;;;2.55;2.28;;;24.60;39.70;;;;;;6154464;28;81242;-66
2021/04/02 06:29:24;;;;;;;4.22;2.30;;;24.60;39.40;;;;;;6157839;27;80301;-67
2021/04/02 06:32:24;;;;;;;5.65;2.75;;;24.60;39.50;;;;;;6141422;28;81444;-68
2021/04/02 06:35:25;;;;;;;2.50;1.92;;;24.60;38.90;;;;;;6154048;27;80460;-70
2021/04/02 06:38:26;;;;;;;7.70;2.15;;;24.60;39.10;;;;;;6157260;27;80517;-68
2021/04/02 06:41:26;;;;;;;3.53;2.13;;;24.60;38.90;;;;;;6166140;27;81616;-73
2021/04/02 06:44:27;;;;;;;2.60;2.00;;;24.60;38.10;;;;;;6157563;27;80570;-69
2021/04/02 06:47:27;;;;;;;2.25;2.05;;;24.50;38.20;;;;;;6151896;28;82319;-69
2021/04/02 06:50:28;;;;;;;5.90;2.38;;;24.50;37.90;;;;;;6162137;27;81735;-71
2021/04/02 06:53:28;;;;;;;2.97;2.28;;;24.50;37.90;;;;;;6159439;28;81554;-71
2021/04/02 06:56:29;;;;;;;3.22;2.45;;;24.50;38.20;;;;;;6156758;27;81053;-69
2021/04/02 06:59:30;;;;;;;2.95;1.98;;;24.50;37.70;;;;;;6152279;27;81660;-69
2021/04/02 07:02:30;;;;;;;5.05;2.50;;;24.40;37.60;;;;;;6148797;27;81557;-71
2021/04/02 07:05:31;;;;;;;6.55;2.67;;;24.40;37.80;;;;;;6153561;28;80627;-73
2021/04/02 07:08:32;;;;;;;6.43;2.95;;;24.50;37.40;;;;;;6153673;27;81157;-71
2021/04/02 07:11:32;;;;;;;4.78;2.45;;;24.50;37.20;;;;;;6156757;28;80848;-73
2021/04/02 07:14:33;;;;;;;41.30;13.55;;;24.50;37.50;;;;;;6122673;27;82298;-74
2021/04/02 07:17:33;;;;;;;186.63;68.88;;;24.50;37.90;;;;;;6165487;28;85963;-72
2021/04/02 07:20:34;;;;;;;287.33;107.50;;;24.50;39.00;;;;;;6144333;27;83214;-73
2021/04/02 07:23:35;;;;;;;186.55;70.28;;;24.40;37.90;;;;;;6158348;28;85726;-70
2021/04/02 07:26:35;;;;;;;215.75;84.28;;;24.50;36.90;;;;;;6153355;27;85941;-72
2021/04/02 07:29:36;;;;;;;205.68;78.05;;;24.50;37.00;;;;;;6146822;28;83310;-72
2021/04/02 07:32:37;;;;;;;187.60;73.35;;;24.50;37.20;;;;;;6154845;28;84635;-73
2021/04/02 07:35:37;;;;;;;173.45;63.40;;;24.50;36.70;;;;;;6142423;28;84016;-72
2021/04/02 07:38:38;;;;;;;162.40;59.78;;;24.50;36.80;;;;;;6152255;27;85007;-74
2021/04/02 07:41:38;;;;;;;143.73;54.85;;;24.50;36.70;;;;;;6146468;27;83000;-71
2021/04/02 07:44:39;;;;;;;124.88;51.35;;;24.50;36.50;;;;;;6150658;27;83235;-71
2021/04/02 07:47:39;;;;;;;117.85;46.72;;;24.50;36.40;;;;;;6150503;28;83504;-69
2021/04/02 07:50:40;;;;;;;115.97;41.58;;;24.50;37.30;;;;;;6151798;28;84069;-68
2021/04/02 07:53:40;;;;;;;104.32;38.25;;;24.40;39.00;;;;;;6148150;27;83563;-70
2021/04/02 07:56:42;;;;;;;85.45;32.67;;;24.50;38.50;;;;;;6148087;28;83577;-69
2021/04/02 07:59:42;;;;;;;66.20;26.75;;;24.50;37.90;;;;;;6148571;27;83275;-71
2021/04/02 08:02:44;;;;;;;53.67;20.92;;;24.40;37.10;;;;;;6143165;27;83461;-71
2021/04/02 08:05:44;;;;;;;45.75;17.77;;;24.40;37.10;;;;;;6148802;28;83392;-73
2021/04/02 08:08:45;;;;;;;41.78;17.40;;;24.30;37.60;;;;;;6149431;27;83416;-71
2021/04/02 08:11:45;;;;;;;36.50;14.52;;;24.20;37.90;;;;;;6152187;27;83461;-72
2021/04/02 08:14:46;;;;;;;28.15;11.68;;;24.20;38.10;;;;;;6148403;28;84491;-74
2021/04/02 08:17:46;;;;;;;24.40;11.43;;;24.10;38.20;;;;;;6142564;28;83514;-72
2021/04/02 08:20:47;;;;;;;27.67;10.30;;;24.10;38.80;;;;;;6153836;28;83966;-73
2021/04/02 08:23:47;;;;;;;22.30;10.57;;;24.10;39.40;;;;;;6144213;28;84663;-72
2021/04/02 08:26:48;;;;;;;21.02;8.32;;;24.10;40.10;;;;;;6155010;27;84416;-73
2021/04/02 08:30:01;;;;;;;19.23;8.52;;;24.10;40.40;;;;;;6149649;27;84445;-74
2021/04/02 08:33:02;;;;;;;22.50;9.63;;;24.10;40.40;;;;;;6159641;27;80654;-74
2021/04/02 08:36:03;;;;;;;20.52;8.20;;;24.10;41.50;;;;;;6150087;28;81488;-74
2021/04/02 08:39:03;;;;;;;15.15;7.85;;;24.20;41.00;;;;;;6163005;28;81439;-74
2021/04/02 08:42:04;;;;;;;16.63;6.63;;;24.10;40.20;;;;;;6161223;27;81742;-74
2021/04/02 08:45:05;;;;;;;16.38;7.35;;;24.20;40.40;;;;;;6167420;28;81713;-74
2021/04/02 08:48:05;;;;;;;10.07;5.57;;;24.30;39.40;;;;;;6157232;27;80732;-73
2021/04/02 08:51:06;;;;;;;8.68;5.13;;;24.30;39.60;;;;;;6154419;27;80579;-73
2021/04/02 08:54:06;;;;;;;9.75;5.15;;;24.20;38.10;;;;;;6155831;27;80935;-72
2021/04/02 08:57:07;;;;;;;9.48;4.22;;;24.10;37.20;;;;;;6163074;28;80975;-74
2021/04/02 09:00:07;;;;;;;17.88;4.38;;;24.10;36.60;;;;;;6163702;27;80763;-74
2021/04/02 09:03:08;;;;;;;17.55;3.55;;;24.00;36.00;;;;;;6166156;27;80398;-74
2021/04/02 09:06:08;;;;;;;18.77;3.45;;;24.00;35.60;;;;;;6152666;28;80383;-74
2021/04/02 09:09:09;;;;;;;7.32;3.58;;;24.00;35.30;;;;;;6170582;27;83137;-73
2021/04/02 09:12:09;;;;;;;6.15;3.35;;;23.90;34.70;;;;;;6150108;28;80672;-73
2021/04/02 09:15:10;;;;;;;5.38;2.83;;;23.90;34.30;;;;;;6159304;28;80265;-73
2021/04/02 09:18:10;;;;;;;5.10;3.25;;;23.80;34.30;;;;;;6162960;28;80408;-72
2021/04/02 09:21:11;;;;;;;6.07;2.83;;;23.80;34.00;;;;;;6163866;27;80524;-73
2021/04/02 09:24:12;;;;;;;7.03;3.53;;;23.80;33.90;;;;;;6168289;27;80903;-73
2021/04/02 09:27:12;;;;;;;7.25;3.20;;;23.80;34.00;;;;;;6169631;27;80842;-72
2021/04/02 09:30:12;;;;;;;7.35;3.45;;;23.80;34.00;;;;;;6162914;28;81110;-70
2021/04/02 09:33:13;;;;;;;3.85;3.05;;;23.70;34.40;;;;;;6156885;27;80463;-73
2021/04/02 09:36:14;;;;;;;4.70;3.20;;;23.80;35.20;;;;;;6140041;28;80431;-72
2021/04/02 09:39:14;;;;;;;4.97;3.17;;;23.70;35.30;;;;;;6146144;28;80308;-71
2021/04/02 09:42:15;;;;;;;4.85;2.70;;;23.70;35.90;;;;;;6156358;27;81204;-72
2021/04/02 09:45:15;;;;;;;6.13;3.50;;;23.70;35.70;;;;;;6159305;27;80348;-72
2021/04/02 09:48:16;;;;;;;5.40;3.10;;;23.60;35.60;;;;;;6165096;27;82300;-73
2021/04/02 09:51:16;;;;;;;6.07;2.83;;;23.60;35.30;;;;;;6159936;28;80902;-73
2021/04/02 09:54:17;;;;;;;3.20;2.58;;;23.60;34.90;;;;;;6165010;27;81732;-73
2021/04/02 09:57:17;;;;;;;4.35;3.13;;;23.60;34.30;;;;;;6158795;27;80568;-73
2021/04/02 10:00:18;;;;;;;7.80;2.90;;;23.60;33.90;;;;;;6159569;28;81606;-73
2021/04/02 10:03:18;;;;;;;4.00;2.67;;;23.60;33.70;;;;;;6143321;28;83855;-72
2021/04/02 10:06:19;;;;;;;3.72;2.13;;;23.70;35.00;;;;;;6160954;27;82247;-72
2021/04/02 10:09:20;;;;;;;4.75;2.88;;;23.80;36.00;;;;;;6156918;27;81735;-72
2021/04/02 10:12:20;;;;;;;4.30;2.97;;;23.80;35.00;;;;;;6160932;27;80679;-73
2021/04/02 10:15:21;;;;;;;3.17;2.20;;;23.90;34.60;;;;;;6165152;27;80064;-73
2021/04/02 10:18:22;;;;;;;4.28;2.67;;;23.90;34.40;;;;;;6151230;27;80622;-73
2021/04/02 10:21:22;;;;;;;7.43;2.80;;;24.00;34.30;;;;;;6146603;27;80821;-72
2021/04/02 10:24:23;;;;;;;3.47;2.65;;;24.00;34.20;;;;;;6151488;27;81008;-73
2021/04/02 10:27:24;;;;;;;4.88;2.67;;;24.00;34.00;;;;;;6153971;27;80587;-71
2021/04/02 10:30:25;;;;;;;7.43;2.63;;;24.10;34.60;;;;;;6153309;28;80565;-74
2021/04/02 10:33:25;;;;;;;2.67;2.25;;;24.10;34.80;;;;;;6153715;28;80383;-73
2021/04/02 10:36:26;;;;;;;4.22;2.47;;;24.10;34.50;;;;;;6159751;27;80771;-70
2021/04/02 10:39:26;;;;;;;6.15;2.72;;;24.10;34.00;;;;;;6156084;27;80728;-73
2021/04/02 10:42:27;;;;;;;2.78;2.15;;;24.10;33.80;;;;;;6162478;27;80687;-70
2021/04/02 10:45:27;;;;;;;4.10;2.75;;;24.10;33.80;;;;;;6158625;27;80399;-77
2021/04/02 10:48:28;;;;;;;4.47;2.97;;;24.20;35.30;;;;;;6143806;28;81927;-71
2021/04/02 10:51:30;;;;;;;4.13;2.60;;;24.20;35.80;;;;;;6163235;27;80385;-72
2021/04/02 10:54:30;;;;;;;5.18;3.40;;;24.30;35.90;;;;;;6159643;27;80802;-70
2021/04/02 10:57:31;;;;;;;2.47;2.20;;;24.30;35.60;;;;;;6150486;28;80363;-71
2021/04/02 11:00:31;;;;;;;4.13;2.67;;;24.30;35.10;;;;;;6151002;27;80344;-72
2021/04/02 11:03:32;;;;;;;4.10;2.45;;;24.40;35.00;;;;;;6153453;28;80930;-72
2021/04/02 11:06:32;;;;;;;5.32;2.70;;;24.40;34.80;;;;;;6155115;28;80892;-72
2021/04/02 11:09:33;;;;;;;5.40;2.38;;;24.40;34.40;;;;;;6146241;27;81371;-75
2021/04/02 11:12:34;;;;;;;7.28;2.63;;;24.40;34.30;;;;;;6150594;28;81406;-68
2021/04/02 11:15:34;;;;;;;9.75;2.70;;;24.50;34.40;;;;;;6146169;27;81509;-70
2021/04/02 11:18:35;;;;;;;6.97;2.80;;;24.50;34.70;;;;;;6152851;28;80973;-71
2021/04/02 11:21:35;;;;;;;8.70;2.83;;;24.50;34.70;;;;;;6154898;27;81256;-71
2021/04/02 11:24:36;;;;;;;13.20;3.03;;;24.50;34.70;;;;;;6144644;27;81228;-71
2021/04/02 11:27:36;;;;;;;6.10;2.67;;;24.60;34.70;;;;;;6153157;28;80656;-65
2021/04/02 11:30:37;;;;;;;8.27;2.35;;;24.60;35.10;;;;;;6155435;28;80837;-68
2021/04/02 11:33:37;;;;;;;3.95;2.30;;;24.60;34.80;;;;;;6153598;28;80565;-66
2021/04/02 11:36:38;;;;;;;6.22;2.47;;;24.70;34.90;;;;;;6154419;28;80397;-67
2021/04/02 11:39:38;;;;;;;5.75;2.50;;;24.80;34.70;;;;;;6150177;28;80709;-70
2021/04/02 11:42:39;;;;;;;9.73;2.53;;;24.80;34.20;;;;;;6153226;27;82794;-68
2021/04/02 11:45:39;;;;;;;17.42;4.20;;;24.80;34.30;;;;;;6160509;27;80541;-68
2021/04/02 11:48:40;;;;;;;16.25;3.95;;;24.80;34.80;;;;;;6153511;27;80596;-66
2021/04/02 11:51:41;;;;;;;13.50;2.90;;;24.80;35.20;;;;;;6154337;28;81076;-66
2021/04/02 11:54:41;;;;;;;10.75;3.55;;;24.90;35.00;;;;;;6153983;28;83710;-64
2021/04/02 11:57:42;;;;;;;10.25;3.00;;;24.90;32.60;;;;;;6151384;27;81496;-69
2021/04/02 12:00:42;;;;;;;5.75;3.03;;;24.90;31.20;;;;;;6147162;28;81079;-67
2021/04/02 12:03:43;;;;;;;5.75;2.63;;;24.80;30.70;;;;;;6149341;28;81331;-66
2021/04/02 12:06:43;;;;;;;3.95;2.63;;;24.80;30.00;;;;;;6132704;27;80606;-65
2021/04/02 12:09:44;;;;;;;7.22;2.97;;;24.80;29.90;;;;;;6154282;28;80891;-65
2021/04/02 12:12:45;;;;;;;6.95;3.15;;;24.80;28.30;;;;;;6153185;27;82665;-67
2021/04/02 12:15:45;;;;;;;3.45;2.80;;;24.70;28.00;;;;;;6158497;27;81111;-67
2021/04/02 12:18:46;;;;;;;6.50;2.75;;;24.70;28.30;;;;;;6147511;28;80834;-65
2021/04/02 12:21:47;;;;;;;4.95;3.00;;;24.60;27.80;;;;;;6154963;27;81662;-64
2021/04/02 12:24:47;;;;;;;4.30;2.78;;;24.60;27.60;;;;;;6157363;28;80509;-64
2021/04/02 12:27:48;;;;;;;4.93;3.13;;;24.60;27.00;;;;;;6156506;27;81481;-65
2021/04/02 12:30:48;;;;;;;3.33;2.60;;;24.50;27.80;;;;;;6154627;28;81539;-64
2021/04/02 12:33:49;;;;;;;2.92;2.65;;;24.50;28.20;;;;;;6151715;27;80390;-66
2021/04/02 12:36:49;;;;;;;3.80;3.25;;;24.50;27.50;;;;;;6149265;27;81269;-64
2021/04/02 12:39:50;;;;;;;5.65;3.65;;;24.40;27.70;;;;;;6160872;28;81403;-65
2021/04/02 12:42:50;;;;;;;3.58;3.17;;;24.40;27.20;;;;;;6153356;27;80725;-65
2021/04/02 12:45:51;;;;;;;5.28;2.92;;;24.30;27.50;;;;;;6158189;27;81751;-65
2021/04/02 12:48:52;;;;;;;5.88;3.67;;;24.30;27.00;;;;;;6154622;27;81013;-65
2021/04/02 12:51:52;;;;;;;3.60;3.28;;;24.20;27.00;;;;;;6156727;28;80896;-67
2021/04/02 12:54:53;;;;;;;5.88;3.15;;;24.20;27.10;;;;;;6156850;28;80439;-64
2021/04/02 12:57:53;;;;;;;4.95;3.13;;;24.10;27.20;;;;;;6155612;28;80622;-65
2021/04/02 13:00:54;;;;;;;4.88;3.70;;;24.10;27.00;;;;;;6154524;27;81475;-67
2021/04/02 13:03:55;;;;;;;4.05;3.20;;;24.00;27.00;;;;;;6157014;28;89804;-69
2021/04/02 13:06:55;;;;;;;2.92;2.45;;;24.10;28.10;;;;;;6157121;27;81022;-68
2021/04/02 13:09:56;;;;;;;2.80;2.60;;;24.10;28.90;;;;;;6166118;27;80522;-67
2021/04/02 13:12:56;;;;;;;7.20;2.50;;;24.30;29.30;;;;;;6155376;27;81170;-68
2021/04/02 13:15:57;;;;;;;3.45;2.55;;;24.30;29.60;;;;;;6157082;27;82319;-67
2021/04/02 13:18:57;;;;;;;3.95;2.30;;;24.40;29.80;;;;;;6145888;28;81865;-67
2021/04/02 13:21:58;;;;;;;3.10;2.65;;;24.40;30.00;;;;;;6140442;28;83065;-67
2021/04/02 13:24:58;;;;;;;4.93;2.88;;;24.40;30.20;;;;;;6152770;28;81725;-65
2021/04/02 13:27:59;;;;;;;3.92;2.38;;;24.50;30.50;;;;;;6156867;27;81386;-70
2021/04/02 13:30:59;;;;;;;3.47;2.17;;;24.50;30.70;;;;;;6158039;27;80895;-69
2021/04/02 13:34:00;;;;;;;3.03;2.47;;;24.60;30.80;;;;;;6154634;27;80569;-67
2021/04/02 13:37:00;;;;;;;2.97;2.40;;;24.60;30.90;;;;;;6157096;28;83448;-66
2021/04/02 13:40:01;;;;;;;2.65;2.13;;;24.60;30.50;;;;;;6159840;28;80723;-72
2021/04/02 13:43:02;;;;;;;3.38;2.25;;;24.60;30.70;;;;;;6157061;28;81186;-72
2021/04/02 13:46:02;;;;;;;3.72;2.40;;;24.70;30.70;;;;;;6159223;27;80502;-71
2021/04/02 13:49:03;;;;;;;2.50;2.10;;;24.70;30.40;;;;;;6160826;27;81546;-69
2021/04/02 13:52:03;;;;;;;4.22;2.30;;;24.60;30.90;;;;;;6158420;27;80383;-71
2021/04/02 13:55:04;;;;;;;4.63;2.72;;;24.60;30.80;;;;;;6159385;28;81012;-70
2021/04/02 13:58:04;;;;;;;3.70;2.92;;;24.60;31.20;;;;;;6154715;27;80702;-69
2021/04/02 14:01:05;;;;;;;4.50;2.78;;;24.70;31.30;;;;;;6156020;28;80897;-70
2021/04/02 14:04:05;;;;;;;4.90;2.58;;;24.70;31.90;;;;;;6157524;27;80944;-71
2021/04/02 14:07:06;;;;;;;5.28;2.60;;;24.70;32.10;;;;;;6155383;27;80805;-72
2021/04/02 14:10:06;;;;;;;9.60;2.78;;;24.70;33.30;;;;;;6155600;27;80752;-69
2021/04/02 14:13:07;;;;;;;8.30;4.07;;;24.80;32.80;;;;;;6163555;27;80788;-68
2021/04/02 14:16:08;;;;;;;4.38;3.78;;;24.80;34.30;;;;;;6157846;27;80786;-68
2021/04/02 14:19:08;;;;;;;7.28;5.13;;;24.80;34.10;;;;;;6155266;28;81422;-72
2021/04/02 14:22:09;;;;;;;6.88;3.20;;;24.70;35.90;;;;;;6154410;28;81469;-71
2021/04/02 14:25:09;;;;;;;10.10;4.40;;;24.80;34.50;;;;;;6154568;27;80404;-68
2021/04/02 14:28:10;;;;;;;5.25;3.92;;;24.70;34.60;;;;;;6150940;27;80931;-69
2021/04/02 14:31:11;;;;;;;5.53;3.60;;;24.80;34.50;;;;;;6153870;27;80705;-70
2021/04/02 14:34:11;;;;;;;10.77;3.17;;;24.80;33.60;;;;;;6160534;27;80781;-69
2021/04/02 14:37:12;;;;;;;4.65;3.00;;;24.70;31.50;;;;;;6150460;27;80841;-69
2021/04/02 14:40:12;;;;;;;4.03;2.85;;;24.70;30.70;;;;;;6151904;28;80613;-69
2021/04/02 14:43:13;;;;;;;4.90;3.20;;;24.60;30.40;;;;;;6154862;28;80572;-69
2021/04/02 14:46:13;;;;;;;3.55;2.97;;;24.60;29.50;;;;;;6150425;28;80952;-69
2021/04/02 14:49:14;;;;;;;3.67;3.10;;;24.60;29.10;;;;;;6155824;28;80458;-69
2021/04/02 14:52:15;;;;;;;4.25;2.60;;;24.60;28.60;;;;;;6158130;28;81038;-68
2021/04/02 14:55:15;;;;;;;4.82;2.78;;;24.50;28.30;;;;;;6160404;27;81440;-69
2021/04/02 14:58:16;;;;;;;4.35;2.53;;;24.50;28.00;;;;;;6148882;28;82239;-69
2021/04/02 15:01:18;;;;;;;5.07;3.05;;;24.50;27.60;;;;;;6159705;27;83263;-69
2021/04/02 15:04:19;;;;;;;4.25;2.55;;;24.40;27.90;;;;;;6125189;28;80680;-69
2021/04/02 15:07:20;;;;;;;4.50;2.70;;;24.40;27.60;;;;;;6148432;27;81357;-69
2021/04/02 15:10:21;;;;;;;4.00;3.20;;;24.40;27.80;;;;;;6151396;28;81603;-70
2021/04/02 15:13:21;;;;;;;5.88;4.18;;;24.40;27.30;;;;;;6157964;27;86375;-69
2021/04/02 15:16:22;;;;;;;6.13;3.85;;;24.30;27.10;;;;;;6154883;27;81838;-69
2021/04/02 15:19:22;;;;;;;3.97;3.15;;;24.30;27.10;;;;;;6151438;28;85353;-71
2021/04/02 15:22:23;;;;;;;5.60;3.42;;;24.30;26.70;;;;;;6144009;28;91607;-68
2021/04/02 15:25:23;;;;;;;4.55;3.63;;;24.20;27.00;;;;;;6155615;28;86334;-68
2021/04/02 15:28:24;;;;;;;4.82;3.40;;;24.10;27.10;;;;;;6128411;28;81337;-68
2021/04/02 15:31:24;;;;;;;6.25;3.42;;;24.20;27.50;;;;;;6151948;28;80830;-69
2021/04/02 15:34:25;;;;;;;9.93;5.20;;;24.10;28.50;;;;;;6150852;27;80615;-69